sensor_id;sensor_type;location;lat;lon;timestamp;pressure;altitude;pressure_sealevel;temperature;humidity
41222;BME280;26952;42.884;23.918;2023-04-22T00:01:58;95522.81;;;8.21;100.00
41222;BME280;26952;42.884;23.918;2023-04-22T00:04:24;95521.66;;;7.91;100.00
41222;BME280;26952;42.884;23.918;2023-04-22T00:06:49;95452.50;;;7.41;100.00
41222;BME280;26952;42.884;23.918;2023-04-22T00:09:15;95512.94;;;7.75;100.00
41222;BME280;26952;42.884;23.918;2023-04-22T00:11:40;95507.69;;;7.75;100.00
41222;BME280;26952;42.884;23.918;2023-04-22T00:14:06;95520.34;;;7.79;100.00
41222;BME280;26952;42.884;23.918;2023-04-22T00:16:31;95536.00;;;7.81;100.00
41222;BME280;26952;42.884;23.918;2023-04-22T00:18:56;95527.09;;;7.66;100.00
41222;BME280;26952;42.884;23.918;2023-04-22T00:21:22;95509.97;;;7.54;100.00
41222;BME280;26952;42.884;23.918;2023-04-22T00:23:47;95520.00;;;7.50;100.00
41222;BME280;26952;42.884;23.918;2023-04-22T00:26:13;95519.81;;;7.52;100.00
41222;BME280;26952;42.884;23.918;2023-04-22T00:28:38;95534.13;;;7.57;100.00
41222;BME280;26952;42.884;23.918;2023-04-22T00:31:03;95455.91;;;7.10;100.00
41222;BME280;26952;42.884;23.918;2023-04-22T00:33:30;95538.63;;;7.65;100.00
41222;BME280;26952;42.884;23.918;2023-04-22T00:35:55;95467.41;;;7.17;100.00
41222;BME280;26952;42.884;23.918;2023-04-22T00:38:20;95522.31;;;7.53;100.00
41222;BME280;26952;42.884;23.918;2023-04-22T00:40:46;95519.00;;;7.59;100.00
41222;BME280;26952;42.884;23.918;2023-04-22T00:43:12;95506.16;;;7.56;100.00
41222;BME280;26952;42.884;23.918;2023-04-22T00:45:38;95531.50;;;7.65;100.00
41222;BME280;26952;42.884;23.918;2023-04-22T00:48:04;95542.91;;;7.82;100.00
41222;BME280;26952;42.884;23.918;2023-04-22T00:50:30;95500.06;;;7.64;100.00
41222;BME280;26952;42.884;23.918;2023-04-22T00:52:55;95500.91;;;7.64;100.00
41222;BME280;26952;42.884;23.918;2023-04-22T00:55:21;95509.81;;;7.71;100.00
41222;BME280;26952;42.884;23.918;2023-04-22T00:57:48;95526.44;;;7.88;100.00
41222;BME280;26952;42.884;23.918;2023-04-22T01:00:14;95537.00;;;7.96;100.00
41222;BME280;26952;42.884;23.918;2023-04-22T01:02:39;95524.81;;;7.95;100.00
41222;BME280;26952;42.884;23.918;2023-04-22T01:05:05;95529.09;;;8.04;100.00
41222;BME280;26952;42.884;23.918;2023-04-22T01:07:33;95518.69;;;8.02;100.00
41222;BME280;26952;42.884;23.918;2023-04-22T01:09:59;95515.25;;;8.10;100.00
41222;BME280;26952;42.884;23.918;2023-04-22T01:12:25;95518.72;;;8.10;100.00
41222;BME280;26952;42.884;23.918;2023-04-22T01:14:50;95540.97;;;8.24;100.00
41222;BME280;26952;42.884;23.918;2023-04-22T01:17:16;95510.81;;;8.10;100.00
41222;BME280;26952;42.884;23.918;2023-04-22T01:19:43;95524.13;;;8.09;100.00
41222;BME280;26952;42.884;23.918;2023-04-22T01:22:11;95530.06;;;8.03;100.00
41222;BME280;26952;42.884;23.918;2023-04-22T01:24:37;95361.81;;;6.95;100.00
41222;BME280;26952;42.884;23.918;2023-04-22T01:27:03;95541.28;;;8.13;100.00
41222;BME280;26952;42.884;23.918;2023-04-22T01:29:28;95511.28;;;7.98;100.00
41222;BME280;26952;42.884;23.918;2023-04-22T01:31:54;95525.47;;;8.05;100.00
41222;BME280;26952;42.884;23.918;2023-04-22T01:34:20;95537.63;;;7.98;100.00
41222;BME280;26952;42.884;23.918;2023-04-22T01:36:45;95522.66;;;7.74;100.00
41222;BME280;26952;42.884;23.918;2023-04-22T01:39:11;95534.34;;;7.80;100.00
41222;BME280;26952;42.884;23.918;2023-04-22T01:41:36;95513.91;;;7.66;100.00
41222;BME280;26952;42.884;23.918;2023-04-22T01:44:02;95514.25;;;7.63;100.00
41222;BME280;26952;42.884;23.918;2023-04-22T01:46:28;95535.81;;;7.74;100.00
41222;BME280;26952;42.884;23.918;2023-04-22T01:48:54;95513.25;;;7.64;100.00
41222;BME280;26952;42.884;23.918;2023-04-22T01:51:19;95507.00;;;7.57;100.00
41222;BME280;26952;42.884;23.918;2023-04-22T01:53:46;95516.03;;;7.62;100.00
41222;BME280;26952;42.884;23.918;2023-04-22T01:56:12;95501.22;;;7.53;100.00
41222;BME280;26952;42.884;23.918;2023-04-22T01:58:38;95510.44;;;7.49;100.00
41222;BME280;26952;42.884;23.918;2023-04-22T02:01:04;95530.03;;;7.55;100.00
41222;BME280;26952;42.884;23.918;2023-04-22T02:03:30;95512.53;;;7.30;100.00
41222;BME280;26952;42.884;23.918;2023-04-22T02:05:55;95505.94;;;7.26;100.00
41222;BME280;26952;42.884;23.918;2023-04-22T02:08:21;95528.63;;;7.27;100.00
41222;BME280;26952;42.884;23.918;2023-04-22T02:10:47;95486.78;;;6.99;100.00
41222;BME280;26952;42.884;23.918;2023-04-22T02:13:13;95516.44;;;7.18;100.00
41222;BME280;26952;42.884;23.918;2023-04-22T02:15:38;95520.84;;;7.09;100.00
41222;BME280;26952;42.884;23.918;2023-04-22T02:18:06;95514.06;;;6.90;100.00
41222;BME280;26952;42.884;23.918;2023-04-22T02:20:32;95506.75;;;6.76;100.00
41222;BME280;26952;42.884;23.918;2023-04-22T02:22:58;95539.34;;;6.83;100.00
41222;BME280;26952;42.884;23.918;2023-04-22T02:25:23;95506.72;;;6.68;100.00
41222;BME280;26952;42.884;23.918;2023-04-22T02:27:48;95515.63;;;6.75;100.00
41222;BME280;26952;42.884;23.918;2023-04-22T02:30:14;95480.03;;;6.55;100.00
41222;BME280;26952;42.884;23.918;2023-04-22T02:32:40;95500.75;;;6.58;100.00
41222;BME280;26952;42.884;23.918;2023-04-22T02:35:05;95511.03;;;6.44;100.00
41222;BME280;26952;42.884;23.918;2023-04-22T02:37:31;95505.06;;;6.34;100.00
41222;BME280;26952;42.884;23.918;2023-04-22T02:39:56;95516.38;;;6.34;100.00
41222;BME280;26952;42.884;23.918;2023-04-22T02:42:22;95523.00;;;6.38;100.00
41222;BME280;26952;42.884;23.918;2023-04-22T02:44:47;95514.75;;;6.33;100.00
41222;BME280;26952;42.884;23.918;2023-04-22T02:47:12;95516.06;;;6.37;100.00
41222;BME280;26952;42.884;23.918;2023-04-22T02:49:38;95535.16;;;6.39;100.00
41222;BME280;26952;42.884;23.918;2023-04-22T02:52:04;95541.75;;;6.43;100.00
41222;BME280;26952;42.884;23.918;2023-04-22T02:54:29;95516.81;;;6.22;100.00
41222;BME280;26952;42.884;23.918;2023-04-22T02:56:55;95543.03;;;6.39;100.00
41222;BME280;26952;42.884;23.918;2023-04-22T02:59:22;95530.63;;;6.24;100.00
41222;BME280;26952;42.884;23.918;2023-04-22T03:01:47;95539.03;;;6.27;100.00
41222;BME280;26952;42.884;23.918;2023-04-22T03:04:13;95531.06;;;6.19;100.00
41222;BME280;26952;42.884;23.918;2023-04-22T03:06:39;95552.81;;;6.29;100.00
41222;BME280;26952;42.884;23.918;2023-04-22T03:09:05;95549.19;;;6.22;100.00
41222;BME280;26952;42.884;23.918;2023-04-22T03:11:30;95530.34;;;6.09;100.00
41222;BME280;26952;42.884;23.918;2023-04-22T03:13:55;95542.34;;;6.12;100.00
41222;BME280;26952;42.884;23.918;2023-04-22T03:16:22;95554.81;;;6.10;100.00
41222;BME280;26952;42.884;23.918;2023-04-22T03:18:48;95531.94;;;6.02;100.00
41222;BME280;26952;42.884;23.918;2023-04-22T03:21:14;95546.50;;;6.14;100.00
41222;BME280;26952;42.884;23.918;2023-04-22T03:23:39;95558.03;;;6.21;100.00
41222;BME280;26952;42.884;23.918;2023-04-22T03:26:05;95550.69;;;6.07;100.00
41222;BME280;26952;42.884;23.918;2023-04-22T03:28:30;95551.53;;;6.08;100.00
41222;BME280;26952;42.884;23.918;2023-04-22T03:30:56;95539.34;;;6.07;100.00
41222;BME280;26952;42.884;23.918;2023-04-22T03:33:21;95521.75;;;5.99;100.00
41222;BME280;26952;42.884;23.918;2023-04-22T03:35:47;95522.78;;;6.06;100.00
41222;BME280;26952;42.884;23.918;2023-04-22T03:38:16;95550.81;;;6.23;100.00
41222;BME280;26952;42.884;23.918;2023-04-22T03:40:42;95525.75;;;6.11;100.00
41222;BME280;26952;42.884;23.918;2023-04-22T03:43:07;95489.19;;;5.92;100.00
41222;BME280;26952;42.884;23.918;2023-04-22T03:45:33;95545.25;;;6.26;100.00
41222;BME280;26952;42.884;23.918;2023-04-22T03:47:58;95538.72;;;6.30;100.00
41222;BME280;26952;42.884;23.918;2023-04-22T03:50:24;95548.66;;;6.44;100.00
41222;BME280;26952;42.884;23.918;2023-04-22T03:52:49;95557.94;;;6.56;100.00
41222;BME280;26952;42.884;23.918;2023-04-22T03:55:15;95553.97;;;6.52;100.00
41222;BME280;26952;42.884;23.918;2023-04-22T03:57:40;95569.16;;;6.66;100.00
41222;BME280;26952;42.884;23.918;2023-04-22T04:00:06;95561.84;;;6.52;100.00
41222;BME280;26952;42.884;23.918;2023-04-22T04:02:31;95560.53;;;6.48;100.00
41222;BME280;26952;42.884;23.918;2023-04-22T04:04:57;95577.19;;;6.65;100.00
41222;BME280;26952;42.884;23.918;2023-04-22T04:07:22;95568.78;;;7.21;100.00
41222;BME280;26952;42.884;23.918;2023-04-22T04:09:47;95591.38;;;8.29;100.00
41222;BME280;26952;42.884;23.918;2023-04-22T04:12:13;95568.69;;;8.99;100.00
41222;BME280;26952;42.884;23.918;2023-04-22T04:14:38;95581.16;;;9.59;100.00
41222;BME280;26952;42.884;23.918;2023-04-22T04:17:04;95571.25;;;10.15;100.00
41222;BME280;26952;42.884;23.918;2023-04-22T04:19:29;95587.59;;;10.92;100.00
41222;BME280;26952;42.884;23.918;2023-04-22T04:21:54;95572.72;;;11.35;100.00
41222;BME280;26952;42.884;23.918;2023-04-22T04:24:21;95553.34;;;11.49;100.00
41222;BME280;26952;42.884;23.918;2023-04-22T04:26:46;95604.84;;;11.90;100.00
41222;BME280;26952;42.884;23.918;2023-04-22T04:29:13;95593.53;;;12.03;100.00
41222;BME280;26952;42.884;23.918;2023-04-22T04:31:38;95597.28;;;12.08;100.00
41222;BME280;26952;42.884;23.918;2023-04-22T04:34:03;95603.13;;;11.83;100.00
41222;BME280;26952;42.884;23.918;2023-04-22T04:36:30;95608.25;;;11.84;100.00
41222;BME280;26952;42.884;23.918;2023-04-22T04:38:57;95591.03;;;11.80;100.00
41222;BME280;26952;42.884;23.918;2023-04-22T04:41:22;95609.66;;;12.01;100.00
41222;BME280;26952;42.884;23.918;2023-04-22T04:43:47;95596.53;;;12.14;99.09
41222;BME280;26952;42.884;23.918;2023-04-22T04:46:14;95618.16;;;12.32;99.31
41222;BME280;26952;42.884;23.918;2023-04-22T04:48:40;95618.66;;;12.42;97.94
41222;BME280;26952;42.884;23.918;2023-04-22T04:51:06;95601.41;;;12.11;98.37
41222;BME280;26952;42.884;23.918;2023-04-22T04:53:32;95631.28;;;12.19;98.83
41222;BME280;26952;42.884;23.918;2023-04-22T04:55:57;95628.44;;;12.21;100.00
41222;BME280;26952;42.884;23.918;2023-04-22T04:58:22;95603.56;;;11.86;100.00
41222;BME280;26952;42.884;23.918;2023-04-22T05:00:48;95622.97;;;12.08;100.00
41222;BME280;26952;42.884;23.918;2023-04-22T05:03:13;95607.75;;;11.95;100.00
41222;BME280;26952;42.884;23.918;2023-04-22T05:05:39;95631.50;;;12.03;100.00
41222;BME280;26952;42.884;23.918;2023-04-22T05:08:04;95635.03;;;11.89;100.00
41222;BME280;26952;42.884;23.918;2023-04-22T05:10:30;95626.88;;;11.91;100.00
41222;BME280;26952;42.884;23.918;2023-04-22T05:12:55;95625.28;;;11.96;100.00
41222;BME280;26952;42.884;23.918;2023-04-22T05:15:21;95633.22;;;12.25;100.00
41222;BME280;26952;42.884;23.918;2023-04-22T05:17:46;95623.84;;;12.50;100.00
41222;BME280;26952;42.884;23.918;2023-04-22T05:20:11;95625.03;;;12.90;100.00
41222;BME280;26952;42.884;23.918;2023-04-22T05:22:37;95614.16;;;12.85;100.00
41222;BME280;26952;42.884;23.918;2023-04-22T05:25:03;95636.59;;;13.04;99.58
41222;BME280;26952;42.884;23.918;2023-04-22T05:27:28;95626.72;;;12.98;99.75
41222;BME280;26952;42.884;23.918;2023-04-22T05:29:55;95614.22;;;12.92;100.00
41222;BME280;26952;42.884;23.918;2023-04-22T05:32:20;95618.88;;;13.11;100.00
41222;BME280;26952;42.884;23.918;2023-04-22T05:34:45;95624.44;;;13.16;100.00
41222;BME280;26952;42.884;23.918;2023-04-22T05:37:11;95624.03;;;13.19;100.00
41222;BME280;26952;42.884;23.918;2023-04-22T05:39:36;95635.81;;;13.37;100.00
41222;BME280;26952;42.884;23.918;2023-04-22T05:42:02;95637.97;;;13.21;99.16
41222;BME280;26952;42.884;23.918;2023-04-22T05:44:27;95621.19;;;12.72;100.00
41222;BME280;26952;42.884;23.918;2023-04-22T05:46:53;95625.84;;;12.70;100.00
41222;BME280;26952;42.884;23.918;2023-04-22T05:49:18;95630.66;;;12.59;100.00
41222;BME280;26952;42.884;23.918;2023-04-22T05:51:44;95630.50;;;12.61;100.00
41222;BME280;26952;42.884;23.918;2023-04-22T05:54:10;95620.44;;;12.35;100.00
41222;BME280;26952;42.884;23.918;2023-04-22T05:56:36;95634.53;;;12.00;100.00
41222;BME280;26952;42.884;23.918;2023-04-22T05:59:01;95636.75;;;11.82;100.00
41222;BME280;26952;42.884;23.918;2023-04-22T06:01:26;95620.59;;;11.77;100.00
41222;BME280;26952;42.884;23.918;2023-04-22T06:03:52;95634.22;;;11.74;100.00
41222;BME280;26952;42.884;23.918;2023-04-22T06:06:17;95613.13;;;11.66;98.96
41222;BME280;26952;42.884;23.918;2023-04-22T06:08:43;95641.81;;;11.77;100.00
41222;BME280;26952;42.884;23.918;2023-04-22T06:11:09;95643.97;;;11.88;100.00
41222;BME280;26952;42.884;23.918;2023-04-22T06:13:34;95640.00;;;12.13;100.00
41222;BME280;26952;42.884;23.918;2023-04-22T06:15:59;95637.25;;;12.42;100.00
41222;BME280;26952;42.884;23.918;2023-04-22T06:18:25;95638.16;;;12.71;100.00
41222;BME280;26952;42.884;23.918;2023-04-22T06:20:51;95625.34;;;12.81;100.00
41222;BME280;26952;42.884;23.918;2023-04-22T06:23:16;95651.06;;;13.22;96.67
41222;BME280;26952;42.884;23.918;2023-04-22T06:25:42;95646.09;;;13.13;93.50
41222;BME280;26952;42.884;23.918;2023-04-22T06:28:07;95654.97;;;13.26;92.82
41222;BME280;26952;42.884;23.918;2023-04-22T06:30:33;95651.19;;;13.42;93.73
41222;BME280;26952;42.884;23.918;2023-04-22T06:32:58;95659.94;;;13.70;92.77
41222;BME280;26952;42.884;23.918;2023-04-22T06:35:24;95665.84;;;14.00;97.33
41222;BME280;26952;42.884;23.918;2023-04-22T06:37:50;95651.31;;;14.62;98.70
41222;BME280;26952;42.884;23.918;2023-04-22T06:40:15;95635.78;;;15.11;81.10
41222;BME280;26952;42.884;23.918;2023-04-22T06:42:41;95661.59;;;15.70;79.01
41222;BME280;26952;42.884;23.918;2023-04-22T06:45:06;95636.50;;;15.84;77.92
41222;BME280;26952;42.884;23.918;2023-04-22T06:47:40;95642.41;;;15.99;81.15
41222;BME280;26952;42.884;23.918;2023-04-22T06:50:07;95625.97;;;16.02;72.33
41222;BME280;26952;42.884;23.918;2023-04-22T06:52:32;95650.50;;;16.30;78.56
41222;BME280;26952;42.884;23.918;2023-04-22T06:54:58;95626.00;;;16.46;72.55
41222;BME280;26952;42.884;23.918;2023-04-22T06:57:23;95639.31;;;16.52;71.86
41222;BME280;26952;42.884;23.918;2023-04-22T06:59:48;95641.63;;;16.36;67.73
41222;BME280;26952;42.884;23.918;2023-04-22T07:02:14;95657.72;;;16.23;69.36
41222;BME280;26952;42.884;23.918;2023-04-22T07:04:39;95660.00;;;17.01;70.34
41222;BME280;26952;42.884;23.918;2023-04-22T07:07:05;95648.38;;;17.14;64.23
41222;BME280;26952;42.884;23.918;2023-04-22T07:09:30;95660.78;;;16.77;60.70
41222;BME280;26952;42.884;23.918;2023-04-22T07:11:56;95659.28;;;16.50;62.40
41222;BME280;26952;42.884;23.918;2023-04-22T07:14:24;95659.09;;;16.51;62.67
41222;BME280;26952;42.884;23.918;2023-04-22T07:16:50;95659.88;;;16.90;63.81
41222;BME280;26952;42.884;23.918;2023-04-22T07:19:16;95654.53;;;17.45;59.62
41222;BME280;26952;42.884;23.918;2023-04-22T07:21:41;95643.47;;;17.35;58.34
41222;BME280;26952;42.884;23.918;2023-04-22T07:24:07;95656.88;;;17.04;61.79
41222;BME280;26952;42.884;23.918;2023-04-22T07:26:36;95664.94;;;17.53;63.23
41222;BME280;26952;42.884;23.918;2023-04-22T07:29:02;95669.31;;;16.92;63.18
41222;BME280;26952;42.884;23.918;2023-04-22T07:31:28;95666.47;;;15.86;67.67
41222;BME280;26952;42.884;23.918;2023-04-22T07:33:53;95669.00;;;15.55;76.65
41222;BME280;26952;42.884;23.918;2023-04-22T07:36:19;95679.91;;;15.40;78.18
41222;BME280;26952;42.884;23.918;2023-04-22T07:38:44;95686.66;;;15.16;79.89
41222;BME280;26952;42.884;23.918;2023-04-22T07:41:09;95693.97;;;14.82;81.73
41222;BME280;26952;42.884;23.918;2023-04-22T07:43:35;95699.75;;;14.98;89.29
41222;BME280;26952;42.884;23.918;2023-04-22T07:46:01;95707.94;;;14.84;81.54
41222;BME280;26952;42.884;23.918;2023-04-22T07:48:26;95698.06;;;14.65;83.17
41222;BME280;26952;42.884;23.918;2023-04-22T07:50:51;95706.34;;;15.15;86.06
41222;BME280;26952;42.884;23.918;2023-04-22T07:53:17;95698.53;;;15.33;83.71
41222;BME280;26952;42.884;23.918;2023-04-22T07:55:42;95709.44;;;15.65;77.09
41222;BME280;26952;42.884;23.918;2023-04-22T07:58:08;95705.00;;;16.22;75.63
41222;BME280;26952;42.884;23.918;2023-04-22T08:00:33;95707.94;;;16.08;73.22
41222;BME280;26952;42.884;23.918;2023-04-22T08:02:59;95705.94;;;15.18;74.44
41222;BME280;26952;42.884;23.918;2023-04-22T08:05:25;95688.69;;;15.08;78.62
41222;BME280;26952;42.884;23.918;2023-04-22T08:07:50;95690.38;;;15.28;73.67
41222;BME280;26952;42.884;23.918;2023-04-22T08:10:16;95699.78;;;15.38;71.67
41222;BME280;26952;42.884;23.918;2023-04-22T08:12:41;95702.06;;;15.54;69.30
41222;BME280;26952;42.884;23.918;2023-04-22T08:15:07;95696.50;;;15.62;67.89
41222;BME280;26952;42.884;23.918;2023-04-22T08:17:32;95710.78;;;16.13;67.14
41222;BME280;26952;42.884;23.918;2023-04-22T08:19:58;95693.72;;;16.71;69.40
41222;BME280;26952;42.884;23.918;2023-04-22T08:22:23;95703.31;;;17.16;66.44
41222;BME280;26952;42.884;23.918;2023-04-22T08:24:49;95700.28;;;17.37;63.17
41222;BME280;26952;42.884;23.918;2023-04-22T08:27:15;95701.25;;;17.18;60.20
41222;BME280;26952;42.884;23.918;2023-04-22T08:29:40;95697.44;;;17.01;65.10
41222;BME280;26952;42.884;23.918;2023-04-22T08:32:06;95648.81;;;16.80;60.31
41222;BME280;26952;42.884;23.918;2023-04-22T08:34:31;95695.66;;;17.20;59.95
41222;BME280;26952;42.884;23.918;2023-04-22T08:36:57;95678.75;;;16.13;66.67
41222;BME280;26952;42.884;23.918;2023-04-22T08:39:22;95712.41;;;16.14;66.01
41222;BME280;26952;42.884;23.918;2023-04-22T08:41:49;95707.59;;;15.72;70.75
41222;BME280;26952;42.884;23.918;2023-04-22T08:44:15;95700.53;;;15.97;75.12
41222;BME280;26952;42.884;23.918;2023-04-22T08:46:43;95683.69;;;16.60;74.04
41222;BME280;26952;42.884;23.918;2023-04-22T08:49:13;95689.38;;;17.08;67.97
41222;BME280;26952;42.884;23.918;2023-04-22T08:51:39;95689.25;;;17.52;62.36
41222;BME280;26952;42.884;23.918;2023-04-22T08:54:05;95683.97;;;16.32;65.51
41222;BME280;26952;42.884;23.918;2023-04-22T08:56:30;95677.50;;;16.15;69.27
41222;BME280;26952;42.884;23.918;2023-04-22T08:58:56;95663.78;;;15.92;72.77
41222;BME280;26952;42.884;23.918;2023-04-22T09:01:23;95669.63;;;16.33;67.92
41222;BME280;26952;42.884;23.918;2023-04-22T09:03:48;95678.63;;;17.14;64.09
41222;BME280;26952;42.884;23.918;2023-04-22T09:06:15;95676.84;;;17.33;64.25
41222;BME280;26952;42.884;23.918;2023-04-22T09:08:41;95671.00;;;17.85;62.37
41222;BME280;26952;42.884;23.918;2023-04-22T09:11:07;95670.34;;;18.08;58.74
41222;BME280;26952;42.884;23.918;2023-04-22T09:13:33;95668.66;;;17.52;60.12
41222;BME280;26952;42.884;23.918;2023-04-22T09:15:58;95652.59;;;15.71;68.80
41222;BME280;26952;42.884;23.918;2023-04-22T09:18:24;95672.69;;;15.14;71.78
41222;BME280;26952;42.884;23.918;2023-04-22T09:20:54;95668.53;;;15.84;72.97
41222;BME280;26952;42.884;23.918;2023-04-22T09:23:20;95682.44;;;16.63;66.29
41222;BME280;26952;42.884;23.918;2023-04-22T09:25:46;95638.09;;;16.86;67.90
41222;BME280;26952;42.884;23.918;2023-04-22T09:28:16;95619.63;;;16.47;64.50
41222;BME280;26952;42.884;23.918;2023-04-22T09:30:43;95674.13;;;16.33;65.84
41222;BME280;26952;42.884;23.918;2023-04-22T09:33:10;95658.63;;;16.04;67.34
41222;BME280;26952;42.884;23.918;2023-04-22T09:35:41;95676.34;;;15.92;68.59
41222;BME280;26952;42.884;23.918;2023-04-22T09:38:11;95669.44;;;15.39;73.75
41222;BME280;26952;42.884;23.918;2023-04-22T09:40:41;95683.13;;;14.96;70.88
41222;BME280;26952;42.884;23.918;2023-04-22T09:43:08;95672.44;;;14.57;73.80
41222;BME280;26952;42.884;23.918;2023-04-22T09:50:32;95667.94;;;14.77;80.04
41222;BME280;26952;42.884;23.918;2023-04-22T09:53:03;95672.28;;;14.98;75.34
41222;BME280;26952;42.884;23.918;2023-04-22T09:55:31;95669.44;;;15.39;71.17
41222;BME280;26952;42.884;23.918;2023-04-22T09:57:56;95670.25;;;15.59;70.55
41222;BME280;26952;42.884;23.918;2023-04-22T10:00:28;95678.03;;;15.21;72.29
41222;BME280;26952;42.884;23.918;2023-04-22T10:02:54;95651.38;;;15.14;74.63
41222;BME280;26952;42.884;23.918;2023-04-22T10:05:20;95657.13;;;15.18;74.74
41222;BME280;26952;42.884;23.918;2023-04-22T10:07:46;95662.75;;;14.50;73.23
41222;BME280;26952;42.884;23.918;2023-04-22T10:10:11;95651.31;;;14.56;73.14
41222;BME280;26952;42.884;23.918;2023-04-22T10:12:37;95660.59;;;14.99;74.02
41222;BME280;26952;42.884;23.918;2023-04-22T10:15:03;95659.97;;;14.84;69.96
41222;BME280;26952;42.884;23.918;2023-04-22T10:17:32;95660.59;;;15.32;70.16
41222;BME280;26952;42.884;23.918;2023-04-22T10:19:59;95663.66;;;15.68;66.74
41222;BME280;26952;42.884;23.918;2023-04-22T10:22:30;95648.56;;;16.06;66.15
41222;BME280;26952;42.884;23.918;2023-04-22T10:24:55;95648.56;;;16.56;65.17
41222;BME280;26952;42.884;23.918;2023-04-22T10:27:22;95643.91;;;16.77;59.72
41222;BME280;26952;42.884;23.918;2023-04-22T10:29:48;95625.84;;;16.28;60.50
41222;BME280;26952;42.884;23.918;2023-04-22T10:34:43;95653.41;;;17.53;57.29
41222;BME280;26952;42.884;23.918;2023-04-22T10:37:13;95658.06;;;17.39;59.75
41222;BME280;26952;42.884;23.918;2023-04-22T10:39:40;95642.34;;;17.25;59.96
41222;BME280;26952;42.884;23.918;2023-04-22T10:42:09;95644.06;;;17.13;58.82
41222;BME280;26952;42.884;23.918;2023-04-22T10:44:47;95649.13;;;16.21;59.94
41222;BME280;26952;42.884;23.918;2023-04-22T10:47:35;95645.09;;;16.43;65.26
41222;BME280;26952;42.884;23.918;2023-04-22T10:50:16;95622.00;;;15.60;61.24
41222;BME280;26952;42.884;23.918;2023-04-22T10:52:44;95647.72;;;15.42;64.82
41222;BME280;26952;42.884;23.918;2023-04-22T10:55:10;95625.72;;;16.10;61.54
41222;BME280;26952;42.884;23.918;2023-04-22T10:57:38;95630.38;;;16.72;62.52
41222;BME280;26952;42.884;23.918;2023-04-22T11:05:28;95622.50;;;16.39;60.13
41222;BME280;26952;42.884;23.918;2023-04-22T11:07:55;95615.59;;;16.69;61.16
41222;BME280;26952;42.884;23.918;2023-04-22T11:10:34;95614.44;;;16.83;60.29
41222;BME280;26952;42.884;23.918;2023-04-22T11:13:04;95613.72;;;16.32;59.98
41222;BME280;26952;42.884;23.918;2023-04-22T11:15:31;95626.94;;;15.37;65.39
41222;BME280;26952;42.884;23.918;2023-04-22T11:17:59;95627.16;;;15.49;73.41
41222;BME280;26952;42.884;23.918;2023-04-22T11:20:24;95610.94;;;15.57;68.76
41222;BME280;26952;42.884;23.918;2023-04-22T11:22:55;95641.47;;;15.80;75.98
41222;BME280;26952;42.884;23.918;2023-04-22T11:25:21;95641.22;;;15.95;73.07
41222;BME280;26952;42.884;23.918;2023-04-22T11:27:47;95631.56;;;15.87;74.64
41222;BME280;26952;42.884;23.918;2023-04-22T11:30:14;95651.31;;;15.86;79.35
41222;BME280;26952;42.884;23.918;2023-04-22T11:32:56;95642.13;;;16.20;78.58
41222;BME280;26952;42.884;23.918;2023-04-22T11:35:32;95634.03;;;16.46;74.71
41222;BME280;26952;42.884;23.918;2023-04-22T11:38:05;95640.88;;;16.67;75.55
41222;BME280;26952;42.884;23.918;2023-04-22T11:40:42;95647.66;;;16.69;74.81
41222;BME280;26952;42.884;23.918;2023-04-22T11:43:09;95632.66;;;16.68;73.31
41222;BME280;26952;42.884;23.918;2023-04-22T11:45:36;95640.19;;;16.84;75.20
41222;BME280;26952;42.884;23.918;2023-04-22T11:48:04;95639.75;;;16.87;72.64
41222;BME280;26952;42.884;23.918;2023-04-22T11:50:32;95641.72;;;16.98;71.91
41222;BME280;26952;42.884;23.918;2023-04-22T11:53:02;95651.44;;;16.86;74.18
41222;BME280;26952;42.884;23.918;2023-04-22T11:58:13;95629.47;;;16.53;75.29
41222;BME280;26952;42.884;23.918;2023-04-22T12:00:47;95646.16;;;16.80;74.48
41222;BME280;26952;42.884;23.918;2023-04-22T12:03:17;95643.28;;;17.06;76.55
41222;BME280;26952;42.884;23.918;2023-04-22T12:05:55;95646.47;;;17.21;75.41
41222;BME280;26952;42.884;23.918;2023-04-22T12:08:23;95647.31;;;17.21;74.88
41222;BME280;26952;42.884;23.918;2023-04-22T12:10:52;95598.75;;;16.93;73.37
41222;BME280;26952;42.884;23.918;2023-04-22T12:13:28;95642.50;;;17.54;72.81
41222;BME280;26952;42.884;23.918;2023-04-22T12:16:16;95645.34;;;17.77;65.91
41222;BME280;26952;42.884;23.918;2023-04-22T12:18:50;95634.94;;;18.24;67.69
41222;BME280;26952;42.884;23.918;2023-04-22T12:21:18;95630.22;;;18.55;61.32
41222;BME280;26952;42.884;23.918;2023-04-22T12:23:48;95635.38;;;18.98;57.98
41222;BME280;26952;42.884;23.918;2023-04-22T12:26:15;95623.66;;;18.81;55.04
41222;BME280;26952;42.884;23.918;2023-04-22T12:28:41;95627.72;;;19.24;56.08
41222;BME280;26952;42.884;23.918;2023-04-22T12:31:08;95611.91;;;19.81;56.46
41222;BME280;26952;42.884;23.918;2023-04-22T12:33:34;95606.22;;;20.28;55.71
41222;BME280;26952;42.884;23.918;2023-04-22T12:36:00;95627.28;;;20.59;52.54
41222;BME280;26952;42.884;23.918;2023-04-22T12:38:25;95597.47;;;20.21;50.35
41222;BME280;26952;42.884;23.918;2023-04-22T12:40:52;95606.41;;;19.76;51.59
41222;BME280;26952;42.884;23.918;2023-04-22T12:43:17;95609.75;;;19.25;50.66
41222;BME280;26952;42.884;23.918;2023-04-22T12:45:43;95623.25;;;19.07;52.00
41222;BME280;26952;42.884;23.918;2023-04-22T12:48:08;95607.47;;;18.58;54.02
41222;BME280;26952;42.884;23.918;2023-04-22T12:50:34;95621.97;;;18.21;53.14
41222;BME280;26952;42.884;23.918;2023-04-22T12:52:59;95600.59;;;17.84;54.10
41222;BME280;26952;42.884;23.918;2023-04-22T12:55:25;95610.88;;;17.45;57.49
41222;BME280;26952;42.884;23.918;2023-04-22T12:57:51;95605.91;;;16.68;59.70
41222;BME280;26952;42.884;23.918;2023-04-22T13:00:17;95612.75;;;16.64;58.39